Welcome to our new website - Welkom op onze vernieuwde website - Bienvenue sur notre nouveau site web - Willkommen auf unserer neuen Website

Lokaal brand risico:
CBI


Regionaal brand risico: Meer informatie


Weerstation
Sluispark-LeuvenLeuven-Sluispark



No particular awareness of the weather is required.    There are no Weather-warnings

Nearby Airports - METAR Reports

   
EBBR - Wilsele bij Leuven
Updated: 19-07-2018 09:20
Clear    Wind: NNE 7.4 km/h
Clear
Wind: Wind: NNE 7.4 km/h
Temperature: 19°C
Dew Point: 13°C
Humidity: 68%
Barometer: 1019 hPa
Visibility: More than 10 km
Cloud details: Clear
EBBR 190720Z 02004KT CAVOK 19/13 Q1019 NOSIG
EBAW - Antwerp
Updated: 19-07-2018 09:20
Clear    Wind: NNW 7.4 km/h
Clear
Wind: Wind: NNW 7.4 km/h
Temperature: 21°C
Dew Point: 14°C
Humidity: 64%
Barometer: 1019 hPa
Visibility: More than 10 km
Cloud details: Clear
EBAW 190720Z 34004KT 290V020 CAVOK 21/14 Q1019 NOSIG
EBLG - Li├Ęge
Updated: 19-07-2018 09:20
Partly Cloudy    Wind: varies 3.7 km/h
Partly Cloudy
Wind: Wind: varies 3.7 km/h
Temperature: 19°C
Dew Point: 12°C
Humidity: 64%
Barometer: 1019 hPa
Clouds: Partly Cloudy
Visibility: 9 km
Cloud details: Partly Cloudy
EBLG 190720Z VRB02KT 9000 NSC 19/12 Q1019 NOSIG
EBCV - Mons/Bergen
Updated: 19-07-2018 09:25
Clear    Wind: NNE 7.4 km/h
Clear
Wind: Wind: NNE 7.4 km/h
Temperature: 20°C
Dew Point: 13°C
Humidity: 64%
Barometer: 1019 hPa
Clouds: Clear
Visibility: More than 10 km
Cloud details: Clear
EBCV 190725Z AUTO 03004KT 9999 NCD 20/13 Q1019 BLU
EHBK - Maastricht
Updated: 19-07-2018 09:25
Clear    Wind: West 7.4 km/h
Clear
Wind: Wind: West 7.4 km/h
Temperature: 19°C
Dew Point: 13°C
Humidity: 68%
Barometer: 1019 hPa
Clouds: Clear
Visibility: More than 10 km
Cloud details: Clear
EHBK 190725Z AUTO 28004KT 200V310 9999 NCD 19/13 Q1019 NOSIG
ELLX - Luxemburg
Updated: 19-07-2018 09:20
Clear    Wind: ENE 11.1 km/h
Clear
Wind: Wind: ENE 11.1 km/h
Temperature: 22°C
Dew Point: 10°C
Humidity: 47%
Barometer: 1019 hPa
Visibility: More than 10 km
Cloud details: Clear
ELLX 190720Z 06006KT CAVOK 22/10 Q1019 NOSIG
EBOS - Oostende
Updated: 19-07-2018 09:20
Clear    Wind: NNE 11.1 km/h
Clear
Wind: Wind: NNE 11.1 km/h
Temperature: 21°C
Dew Point: 14°C
Humidity: 64%
Barometer: 1020 hPa
Visibility: More than 10 km
Cloud details: Clear
EBOS 190720Z 03006KT CAVOK 21/14 Q1020 NOSIG
  

Script developed by  Saratoga-weather.org Adapted for the template by  Weerstation Leuven

You find our weather info also at:

UK Metoffice

WeatherCloud

European Weather Network

Weather Underground

Benelux Weather Network

AWEKAS

WeatherlinkIP

Het Weer Aktueel

Equipment we use:

Weather-station
Davis VP2 weatherstation

Weather-program
Meteobridge

Weather-server
Asus WL -330N3G

Provider
Robohost

Davis VP2 weatherstation

Meteobridge

Asus WL -330N3G

Robohost